Time;durP1;ratioP1;P1;durP2;ratioP2;P2;SDS_P1;SDS_P2;PMS_P1;PMS_P2;Temp;Humidity;BMP_temperature;BMP_pressure;BME280_temperature;BME280_humidity;BME280_pressure;Samples;Min_cycle;Max_cycle;Signal;HPM_P1;HPM_P2
2021/05/30 00:02:19;;;;;;;6.80;6.13;;;17.50;95.80;;;17.89;50.02;102290.28;4945303;28;100338;-59
2021/05/30 00:04:45;;;;;;;4.17;3.77;;;17.50;95.90;;;17.91;49.69;102283.09;4925122;28;98119;-60
2021/05/30 00:07:12;;;;;;;3.87;3.57;;;17.60;95.60;;;17.96;49.79;102285.59;4925803;28;99618;-60
2021/05/30 00:09:38;;;;;;;5.00;4.60;;;17.70;95.60;;;17.98;49.80;102292.59;4924029;28;98236;-60
2021/05/30 00:12:08;;;;;;;3.60;3.30;;;17.80;95.00;;;17.99;49.55;102286.34;4923636;28;99821;-60
2021/05/30 00:14:34;;;;;;;4.20;3.80;;;17.70;95.60;;;18.02;49.63;102288.88;4927051;28;98912;-60
2021/05/30 00:17:00;;;;;;;13.50;12.10;;;17.80;95.20;;;18.03;49.25;102285.25;4925874;28;98163;-60
2021/05/30 00:19:26;;;;;;;5.47;4.97;;;17.80;94.50;;;18.00;49.68;102288.06;4928060;28;97728;-60
2021/05/30 00:21:52;;;;;;;5.27;4.77;;;17.70;95.40;;;18.00;49.75;102293.41;4922699;28;98350;-60
2021/05/30 00:24:18;;;;;;;13.33;10.20;;;17.70;95.70;;;18.02;49.37;102291.53;4942407;28;99023;-60
2021/05/30 00:26:44;;;;;;;4.77;4.37;;;17.80;94.80;;;17.98;49.70;102284.59;4923771;28;100247;-60
2021/05/30 00:29:10;;;;;;;5.50;5.00;;;17.70;95.30;;;17.96;49.63;102285.59;4925104;28;100029;-60
2021/05/30 00:31:37;;;;;;;3.80;3.50;;;17.60;95.70;;;17.96;49.61;102286.47;4919997;28;98457;-60
2021/05/30 00:34:03;;;;;;;11.83;10.63;;;17.60;95.80;;;17.95;49.57;102290.06;4928222;28;105058;-60
2021/05/30 00:36:29;;;;;;;14.00;12.50;;;17.70;94.50;;;17.93;49.63;102291.91;4919537;28;99485;-61
2021/05/30 00:38:55;;;;;;;5.97;5.37;;;17.60;94.90;;;17.92;49.98;102290.16;4924994;28;97325;-60
2021/05/30 00:41:20;;;;;;;9.17;8.30;;;17.50;95.70;;;17.92;49.84;102286.63;4924105;28;98286;-60
2021/05/30 00:43:52;;;;;;;10.20;9.20;;;17.60;95.50;;;17.90;49.74;102286.69;4927186;28;100703;-60
2021/05/30 00:46:19;;;;;;;12.43;11.20;;;17.60;95.40;;;17.88;49.89;102285.88;4931681;28;97025;-60
2021/05/30 00:48:46;;;;;;;6.47;5.87;;;17.60;95.40;;;17.86;49.92;102290.44;4920515;28;98960;-60
2021/05/30 00:51:12;;;;;;;5.83;4.97;;;17.50;95.60;;;17.89;50.01;102284.97;4929422;28;99274;-59
2021/05/30 00:53:38;;;;;;;14.47;13.00;;;17.60;95.80;;;17.94;49.45;102291.00;4920238;28;99993;-59
2021/05/30 00:56:07;;;;;;;5.07;4.67;;;17.70;94.50;;;17.91;49.83;102282.22;4926957;28;97858;-59
2021/05/30 00:58:34;;;;;;;5.13;4.73;;;17.60;95.70;;;17.87;49.97;102284.16;4921467;28;104327;-60
2021/05/30 01:01:00;;;;;;;7.10;6.43;;;17.50;95.80;;;17.83;50.02;102285.22;4926690;28;98090;-60
2021/05/30 01:03:26;;;;;;;15.20;13.70;;;17.40;95.20;;;17.78;49.88;102277.38;4926792;28;97427;-59
2021/05/30 01:05:52;;;;;;;14.47;13.07;;;17.30;95.40;;;17.76;50.10;102273.03;4909981;28;97631;-60
2021/05/30 01:08:26;;;;;;;5.27;4.87;;;17.30;95.50;;;17.72;50.13;102287.44;4925717;28;99461;-59
2021/05/30 01:10:55;;;;;;;12.50;11.17;;;17.20;95.90;;;17.70;50.30;102278.63;4938029;28;104236;-60
2021/05/30 01:13:23;;;;;;;9.93;8.93;;;17.20;96.30;;;17.67;50.46;102279.59;4940253;28;98030;-59
2021/05/30 01:15:50;;;;;;;13.33;12.03;;;17.20;95.30;;;17.60;50.49;102277.22;4923869;28;97883;-59
2021/05/30 01:18:22;;;;;;;7.03;6.33;;;17.00;95.70;;;17.52;50.87;102281.06;4926267;28;99268;-60
2021/05/30 01:20:50;;;;;;;5.17;4.77;;;16.80;96.60;;;17.48;nan;102282.09;4925471;28;100120;-59
2021/05/30 01:23:18;;;;;;;5.17;4.67;;;16.90;97.20;;;17.46;51.06;102289.28;4916463;28;97146;-60
2021/05/30 01:25:45;;;;;;;10.70;9.67;;;16.90;96.80;;;17.47;51.00;102287.50;4926348;28;98069;-60
2021/05/30 01:28:12;;;;;;;10.70;9.67;;;16.90;96.80;;;17.45;51.04;102284.88;4927042;28;97720;-60
2021/05/30 01:30:39;;;;;;;5.27;4.70;;;16.90;97.00;;;17.52;50.98;102286.41;4957244;28;100324;-60
2021/05/30 01:33:05;;;;;;;18.30;16.23;;;17.10;97.00;;;17.45;50.26;102279.56;4931693;28;98274;-60
2021/05/30 01:35:32;;;;;;;5.20;4.70;;;17.00;95.40;;;17.39;50.95;102287.81;4906454;28;97139;-61
2021/05/30 01:37:58;;;;;;;5.43;5.03;;;16.80;97.30;;;17.45;50.90;102281.34;4926706;28;100245;-60
2021/05/30 01:40:25;;;;;;;4.53;4.23;;;17.00;97.30;;;17.47;50.84;102282.16;4925495;28;98444;-60
2021/05/30 01:42:55;;;;;;;4.80;4.30;;;17.00;97.20;;;17.50;51.02;102282.94;4925830;28;98329;-61
2021/05/30 01:45:23;;;;;;;5.47;5.07;;;17.10;97.00;;;17.58;50.60;102284.41;4907334;28;97841;-61
2021/05/30 01:47:50;;;;;;;15.00;13.50;;;17.20;96.70;;;17.64;50.50;102284.16;4952742;28;99569;-61
2021/05/30 01:50:22;;;;;;;4.17;3.87;;;17.40;95.10;;;17.70;50.49;102283.97;4923181;28;99682;-61
2021/05/30 01:52:49;;;;;;;7.07;5.77;;;17.40;96.30;;;17.72;50.48;102282.09;4906472;28;98389;-61
2021/05/30 01:55:19;;;;;;;5.53;5.07;;;17.50;95.10;;;17.70;50.25;102284.84;4922713;28;99044;-60
2021/05/30 01:57:48;;;;;;;10.10;9.17;;;17.30;95.80;;;17.74;50.44;102285.56;4905361;28;101334;-60
2021/05/30 02:00:16;;;;;;;9.43;8.53;;;17.40;96.40;;;17.79;50.21;102283.59;4924650;28;97813;-61
2021/05/30 02:02:50;;;;;;;5.07;4.67;;;17.50;95.50;;;17.80;50.14;102283.56;4921890;28;99769;-61
2021/05/30 02:05:16;;;;;;;4.00;3.70;;;17.50;96.00;;;17.88;50.10;102287.69;4926584;28;98695;-61
2021/05/30 02:07:43;;;;;;;5.23;4.80;;;17.70;95.90;;;17.89;49.75;102290.28;4955370;28;99749;-61
2021/05/30 02:10:12;;;;;;;4.90;4.50;;;17.70;95.40;;;17.99;49.55;102288.13;4924896;28;98715;-61
2021/05/30 02:12:38;;;;;;;4.97;4.50;;;17.80;95.80;;;18.07;49.50;102281.53;4952341;28;99202;-60
2021/05/30 02:15:06;;;;;;;4.80;4.40;;;18.00;94.90;;;18.04;49.60;102289.66;4932309;28;97526;-60
2021/05/30 02:17:34;;;;;;;11.67;9.50;;;17.90;94.90;;;17.98;49.46;102289.06;4907756;28;100530;-60
2021/05/30 02:20:01;;;;;;;4.83;4.43;;;17.70;93.90;;;17.92;49.87;102284.81;4962104;28;99268;-60
2021/05/30 02:22:26;;;;;;;5.80;5.30;;;17.60;96.10;;;17.91;49.73;102287.56;4924346;28;99708;-61
2021/05/30 02:24:52;;;;;;;4.80;4.40;;;17.60;95.90;;;17.87;49.74;102292.16;4923397;28;98269;-60
2021/05/30 02:27:19;;;;;;;8.40;7.67;;;17.50;95.50;;;17.80;50.04;102286.22;4923135;28;100476;-60
2021/05/30 02:29:46;;;;;;;4.97;4.57;;;17.40;94.70;;;17.79;50.00;102286.25;4956090;28;100838;-60
2021/05/30 02:32:15;;;;;;;15.87;14.27;;;17.40;96.40;;;17.76;49.85;102291.72;4925534;28;98918;-61
2021/05/30 02:34:42;;;;;;;5.93;5.37;;;17.40;94.60;;;17.73;50.19;102294.50;4925178;28;97853;-60
2021/05/30 02:37:13;;;;;;;11.63;10.53;;;17.40;95.60;;;17.68;50.21;102288.47;4941804;28;100083;-61
2021/05/30 02:39:39;;;;;;;5.67;5.17;;;17.20;94.80;;;17.63;50.42;102285.09;4923042;28;100736;-60
2021/05/30 02:42:07;;;;;;;7.57;6.33;;;17.10;96.50;;;17.59;50.27;102284.34;4956616;28;98040;-60
2021/05/30 02:44:33;;;;;;;14.93;13.43;;;17.20;95.90;;;17.53;50.50;102285.47;4956454;28;97811;-61
2021/05/30 02:46:59;;;;;;;11.67;10.57;;;17.00;94.90;;;17.51;50.47;102284.66;4927177;28;108943;-61
2021/05/30 02:49:25;;;;;;;15.90;14.33;;;17.00;96.10;;;17.41;49.37;102288.59;4927093;28;98726;-60
2021/05/30 02:51:53;;;;;;;5.60;5.13;;;16.80;94.90;;;17.38;50.89;102282.53;4924987;28;97384;-60
2021/05/30 02:54:20;;;;;;;15.50;13.90;;;16.80;97.60;;;17.32;50.55;102286.28;4960323;28;97509;-60
2021/05/30 02:56:45;;;;;;;5.40;4.90;;;16.70;95.40;;;17.32;51.10;102285.41;4923858;28;101910;-60
2021/05/30 02:59:12;;;;;;;5.60;5.10;;;16.80;97.50;;;17.28;51.22;102292.66;4925935;28;98044;-60
2021/05/30 03:01:38;;;;;;;15.53;14.03;;;16.70;97.40;;;17.18;49.67;102285.94;4926033;28;98263;-61
2021/05/30 03:04:04;;;;;;;5.07;4.67;;;16.50;95.20;;;17.25;51.46;102282.13;4931133;28;97570;-61
2021/05/30 03:06:31;;;;;;;15.90;14.13;;;16.60;97.60;;;16.99;49.99;102282.22;4924224;28;99247;-61
2021/05/30 03:08:58;;;;;;;7.13;6.53;;;16.50;95.10;;;17.26;51.20;102289.19;4924798;28;99898;-61
2021/05/30 03:11:26;;;;;;;5.50;5.10;;;16.80;96.70;;;17.08;51.57;102285.44;4942795;28;97609;-61
2021/05/30 03:13:53;;;;;;;7.37;6.67;;;16.50;97.30;;;17.31;51.21;102289.88;4924150;28;97383;-61
2021/05/30 03:16:20;;;;;;;11.53;10.40;;;16.90;96.60;;;17.14;51.07;102287.84;4946852;28;99466;-60
2021/05/30 03:18:46;;;;;;;12.27;11.07;;;16.70;96.10;;;17.18;50.37;102296.59;4946174;28;98776;-60
2021/05/30 03:21:14;;;;;;;5.63;5.17;;;16.70;95.20;;;17.04;51.71;102289.13;4952437;28;96865;-61
2021/05/30 03:23:40;;;;;;;5.97;5.47;;;16.40;97.30;;;17.04;51.94;102289.13;4979400;28;97335;-60
2021/05/30 03:26:06;;;;;;;10.53;9.53;;;16.40;98.00;;;17.04;51.87;102288.25;4946716;28;97755;-61
2021/05/30 03:28:32;;;;;;;8.60;7.80;;;16.40;97.10;;;17.07;51.88;102288.13;4947004;28;104121;-61
2021/05/30 03:30:58;;;;;;;6.30;5.60;;;16.50;96.10;;;17.02;52.09;102287.44;4931946;28;104358;-61
2021/05/30 03:33:24;;;;;;;15.60;13.03;;;16.40;97.30;;;16.98;51.81;102284.03;4952786;28;96999;-60
2021/05/30 03:35:51;;;;;;;9.50;8.60;;;16.20;96.70;;;17.00;52.22;102287.50;4964015;28;100715;-61
2021/05/30 03:38:19;;;;;;;9.13;8.13;;;16.30;98.40;;;17.02;52.16;102295.44;4981736;28;99024;-62
2021/05/30 03:43:10;;;;;;;5.40;5.00;;;16.20;97.20;;;17.01;52.08;102291.03;4955750;28;97404;-62
2021/05/30 03:45:36;;;;;;;6.77;6.10;;;16.30;98.60;;;17.09;51.99;102296.97;4975635;28;106715;-61
2021/05/30 03:48:05;;;;;;;5.73;5.23;;;16.60;96.70;;;17.09;51.80;102299.63;4951758;28;98210;-62
2021/05/30 03:50:31;;;;;;;5.80;5.30;;;16.60;97.50;;;17.14;51.94;102300.31;4931283;28;96937;-61
2021/05/30 03:52:57;;;;;;;9.23;8.40;;;16.70;97.70;;;17.19;51.39;102298.34;4969912;28;97041;-62
2021/05/30 03:55:23;;;;;;;8.07;7.37;;;16.70;95.60;;;17.15;51.59;102307.38;4968147;28;99940;-62
2021/05/30 03:57:49;;;;;;;7.77;7.07;;;16.50;95.70;;;17.06;51.52;102294.38;4947697;28;98495;-62
2021/05/30 04:00:18;;;;;;;6.33;5.83;;;16.30;96.30;;;17.03;51.82;102297.16;4955240;28;97195;-62
2021/05/30 04:02:46;;;;;;;5.60;5.10;;;16.20;97.00;;;17.02;51.84;102292.75;4949029;28;96881;-62
2021/05/30 04:05:13;;;;;;;11.00;9.83;;;16.30;97.50;;;17.03;51.64;102290.03;4972124;28;97777;-62
2021/05/30 04:07:40;;;;;;;5.10;4.70;;;16.50;96.70;;;17.11;51.97;102300.44;4945962;28;97119;-61
2021/05/30 04:10:12;;;;;;;6.10;5.50;;;16.60;98.10;;;17.20;51.72;102300.06;4969624;28;97577;-60
2021/05/30 04:12:42;;;;;;;7.37;6.67;;;16.80;97.50;;;17.25;51.28;102295.47;4963911;28;97336;-58
2021/05/30 04:15:11;;;;;;;12.23;11.03;;;16.90;96.60;;;17.28;50.97;102300.66;4948182;28;100910;-62
2021/05/30 04:17:39;;;;;;;9.77;8.37;;;16.90;95.50;;;17.28;51.21;102308.66;4963376;28;99014;-61
2021/05/30 04:20:07;;;;;;;5.17;4.77;;;16.90;95.70;;;17.36;50.90;102301.25;4953801;28;96855;-61
2021/05/30 04:22:36;;;;;;;6.93;6.23;;;17.00;97.10;;;17.44;50.76;102299.16;4942038;28;97071;-61
2021/05/30 04:25:08;;;;;;;11.73;10.53;;;17.20;95.20;;;17.42;50.56;102305.47;4962384;28;100464;-60
2021/05/30 04:27:36;;;;;;;5.70;4.97;;;17.00;95.20;;;17.40;50.77;102304.69;4946060;28;104539;-61
2021/05/30 04:30:07;;;;;;;5.97;5.47;;;17.00;96.80;;;17.38;50.99;102299.41;4945882;28;97274;-61
2021/05/30 04:32:34;;;;;;;9.17;8.27;;;16.90;96.30;;;17.35;50.94;102301.28;4965902;28;97152;-61
2021/05/30 04:35:00;;;;;;;10.80;9.70;;;16.90;95.90;;;17.32;50.97;102302.28;4955603;28;98986;-62
2021/05/30 04:37:26;;;;;;;14.33;12.83;;;16.80;96.00;;;17.24;50.60;102302.59;4953134;28;99013;-62
2021/05/30 04:39:52;;;;;;;12.70;11.40;;;16.60;95.70;;;17.18;51.45;102301.94;4950927;28;97015;-62
2021/05/30 04:42:18;;;;;;;14.67;13.10;;;16.40;96.50;;;17.14;51.46;102300.31;4951914;28;97307;-62
2021/05/30 04:44:45;;;;;;;7.13;6.53;;;16.40;96.50;;;17.08;51.65;102300.56;4953078;28;97512;-62
2021/05/30 04:47:11;;;;;;;9.33;8.43;;;16.40;97.30;;;17.07;51.47;102304.13;4950527;28;100249;-62
2021/05/30 04:49:39;;;;;;;6.80;6.20;;;16.40;96.90;;;17.08;51.78;102300.56;4942883;28;99128;-62
2021/05/30 04:52:07;;;;;;;10.60;9.50;;;16.50;97.80;;;17.12;51.75;102302.19;4952836;28;97117;-62
2021/05/30 04:54:33;;;;;;;15.23;13.07;;;16.60;97.10;;;17.13;51.51;102309.25;4938422;28;100961;-61
2021/05/30 04:56:59;;;;;;;16.77;13.73;;;16.50;97.00;;;17.12;51.44;102305.72;4930789;28;98472;-59
2021/05/30 04:59:25;;;;;;;12.07;10.87;;;16.50;96.90;;;17.10;51.41;102304.03;4952942;28;97492;-62
2021/05/30 05:01:51;;;;;;;13.60;11.80;;;16.50;97.20;;;17.08;51.82;102311.22;4949897;28;97321;-62
2021/05/30 05:04:17;;;;;;;10.50;9.47;;;16.40;97.60;;;17.06;51.79;102305.03;4945392;28;98774;-62
2021/05/30 05:06:43;;;;;;;8.37;7.10;;;16.40;97.80;;;17.05;51.85;102311.31;4937116;28;100030;-62
2021/05/30 05:09:09;;;;;;;14.10;12.60;;;16.30;98.30;;;16.99;51.95;102311.53;4937078;28;104107;-62
2021/05/30 05:11:34;;;;;;;15.10;13.43;;;16.20;98.60;;;16.99;52.03;102300.88;4946464;28;97070;-61
2021/05/30 05:14:00;;;;;;;15.47;13.20;;;16.20;98.40;;;16.97;51.94;102302.75;4954642;28;102575;-62
2021/05/30 05:16:26;;;;;;;15.23;13.63;;;16.20;98.50;;;16.95;52.11;102305.47;4977780;28;99026;-62
2021/05/30 05:18:52;;;;;;;11.10;10.10;;;16.20;98.80;;;16.95;52.42;102298.34;4947383;28;96929;-62
2021/05/30 05:21:18;;;;;;;15.50;13.83;;;16.20;98.90;;;16.97;52.20;102308.06;4951374;28;97339;-61
2021/05/30 05:23:44;;;;;;;6.60;6.00;;;16.20;99.00;;;16.99;52.37;102301.75;4949547;28;98756;-59
2021/05/30 05:26:09;;;;;;;16.40;12.90;;;16.30;99.20;;;17.02;52.30;102303.44;4949359;28;98489;-62
2021/05/30 05:28:35;;;;;;;5.80;5.07;;;16.40;99.10;;;17.05;52.10;102305.97;4947136;28;97380;-62
2021/05/30 05:31:02;;;;;;;4.50;4.10;;;16.40;99.70;;;17.14;51.86;102311.84;4969433;28;97306;-59
2021/05/30 05:33:28;;;;;;;7.23;6.57;;;16.60;99.00;;;17.28;51.67;102314.00;4944153;28;100716;-64
2021/05/30 05:35:54;;;;;;;5.07;4.67;;;16.90;98.00;;;17.45;51.31;102313.38;4943924;28;97299;-61
2021/05/30 05:38:20;;;;;;;4.63;4.23;;;17.20;97.40;;;17.58;50.56;102311.97;4951267;28;97268;-60
2021/05/30 05:40:46;;;;;;;4.63;4.23;;;17.40;97.00;;;17.73;50.47;102306.06;4971119;28;97399;-61
2021/05/30 05:43:12;;;;;;;4.83;4.43;;;17.60;96.60;;;17.91;49.92;102314.25;4949748;28;100299;-61
2021/05/30 05:45:38;;;;;;;4.70;4.30;;;17.80;96.10;;;18.01;49.79;102311.16;4968634;28;103103;-61
2021/05/30 05:48:14;;;;;;;5.20;4.73;;;18.00;95.80;;;18.11;49.31;102311.66;4955445;28;97527;-62
2021/05/30 05:50:41;;;;;;;4.60;4.30;;;18.10;94.90;;;18.10;49.32;102300.13;4969532;28;97068;-62
2021/05/30 05:53:07;;;;;;;4.00;3.70;;;18.00;95.80;;;18.20;48.98;102307.72;4969333;28;97641;-60
2021/05/30 05:55:34;;;;;;;3.97;3.67;;;18.10;95.50;;;18.29;48.84;102304.69;4936644;28;102681;-62
2021/05/30 05:58:00;;;;;;;11.33;10.10;;;18.30;95.20;;;18.29;48.28;102305.56;4962545;28;97301;-62
2021/05/30 06:00:27;;;;;;;9.07;8.17;;;18.30;94.50;;;18.24;48.86;102301.34;4957003;28;97575;-59
2021/05/30 06:02:53;;;;;;;10.87;9.77;;;18.10;95.20;;;18.24;48.72;102296.88;4964089;28;104201;-60
2021/05/30 06:05:22;;;;;;;10.60;9.57;;;18.10;95.30;;;18.20;49.04;102310.41;4970224;28;99417;-62
2021/05/30 06:07:51;;;;;;;12.23;9.33;;;18.00;95.20;;;18.05;48.36;102307.44;4976551;28;97092;-62
2021/05/30 06:10:23;;;;;;;5.17;4.77;;;17.80;95.40;;;18.10;49.05;102307.25;4967504;28;97078;-63
2021/05/30 06:12:49;;;;;;;5.13;4.70;;;17.80;95.80;;;18.18;48.84;102322.94;4950085;28;98937;-62
2021/05/30 06:15:16;;;;;;;4.20;3.90;;;18.00;95.00;;;18.18;49.12;102322.94;4953414;28;97376;-59
2021/05/30 06:17:42;;;;;;;4.57;4.20;;;18.00;95.60;;;18.25;48.76;102325.31;4950617;28;99662;-60
2021/05/30 06:20:09;;;;;;;4.60;4.20;;;18.20;95.30;;;18.33;48.69;102327.66;4949240;28;99869;-62
2021/05/30 06:22:35;;;;;;;5.67;5.17;;;18.30;94.90;;;18.40;47.88;102331.81;4955259;28;98472;-61
2021/05/30 06:25:01;;;;;;;4.07;3.70;;;18.50;94.20;;;18.45;48.59;102332.50;4948646;28;98838;-62
2021/05/30 06:27:28;;;;;;;3.83;3.53;;;18.50;94.50;;;18.54;47.97;102326.78;4955670;28;97427;-59
2021/05/30 06:29:54;;;;;;;3.90;3.60;;;18.60;94.30;;;18.61;47.73;102325.56;4949268;28;97308;-62
2021/05/30 06:32:19;;;;;;;4.20;3.90;;;18.70;94.00;;;18.68;47.63;102324.41;4986338;28;107185;-62
2021/05/30 06:34:45;;;;;;;5.40;4.63;;;18.80;93.90;;;18.74;47.71;102333.94;4965780;28;100104;-62
2021/05/30 06:37:11;;;;;;;7.83;7.07;;;18.90;93.80;;;18.76;47.20;102328.53;4990508;28;97326;-61
2021/05/30 06:39:37;;;;;;;4.30;3.90;;;18.90;93.10;;;18.71;47.41;102329.63;4948257;28;97643;-63
2021/05/30 06:42:03;;;;;;;4.23;3.93;;;18.80;93.90;;;18.77;47.38;102330.28;4955499;28;97139;-62
2021/05/30 06:44:29;;;;;;;3.77;3.47;;;18.80;93.80;;;18.82;47.46;102330.97;4949270;28;97336;-62
2021/05/30 06:46:55;;;;;;;7.23;6.30;;;18.90;93.70;;;18.85;47.35;102330.81;4966223;28;97482;-62
2021/05/30 06:49:21;;;;;;;4.13;3.73;;;18.90;93.20;;;18.89;47.28;102324.38;4958070;28;97492;-61
2021/05/30 06:51:46;;;;;;;3.93;3.57;;;19.00;93.50;;;18.92;47.27;102332.28;4951080;28;98720;-62
2021/05/30 06:54:13;;;;;;;5.30;4.80;;;19.00;93.40;;;18.94;46.99;102335.75;4949033;28;97258;-62
2021/05/30 06:56:38;;;;;;;3.70;3.40;;;19.00;93.00;;;18.94;47.01;102343.75;4949477;28;96738;-60
2021/05/30 06:59:05;;;;;;;6.27;5.37;;;19.10;93.30;;;18.96;47.03;102328.53;4956471;28;97323;-62
2021/05/30 07:01:31;;;;;;;3.90;3.60;;;19.10;93.20;;;19.01;46.99;102331.88;4960219;28;99688;-63
2021/05/30 07:03:57;;;;;;;3.53;3.23;;;19.20;93.20;;;19.03;46.98;102325.50;4944498;28;98808;-62
2021/05/30 07:06:23;;;;;;;4.00;3.70;;;19.20;93.10;;;19.05;46.73;102327.25;4952316;28;99448;-63
2021/05/30 07:08:50;;;;;;;3.60;3.30;;;19.20;93.00;;;19.09;46.81;102336.88;4973549;28;97301;-63
2021/05/30 07:11:16;;;;;;;3.80;3.50;;;19.20;93.00;;;19.04;46.92;102331.72;4952719;28;100261;-63
2021/05/30 07:13:42;;;;;;;3.50;3.20;;;19.20;92.90;;;19.05;46.83;102338.81;4949732;28;99450;-63
2021/05/30 07:16:08;;;;;;;4.43;4.03;;;19.20;92.90;;;19.09;46.66;102335.06;4952400;28;97475;-63
2021/05/30 07:18:34;;;;;;;4.30;4.00;;;19.30;92.90;;;19.06;46.55;102334.34;4966240;28;97008;-63
2021/05/30 07:21:00;;;;;;;3.83;3.50;;;19.10;92.80;;;19.04;46.73;102337.06;4950456;28;98514;-63
2021/05/30 07:23:26;;;;;;;8.93;6.40;;;19.10;93.00;;;18.99;45.91;102325.72;4954823;28;98185;-62
2021/05/30 07:25:53;;;;;;;4.07;3.77;;;19.00;91.90;;;18.95;46.74;102332.13;4929142;28;97045;-62
2021/05/30 07:28:19;;;;;;;4.47;4.10;;;18.90;93.10;;;18.86;47.26;102335.22;4939859;28;97450;-62
2021/05/30 07:30:45;;;;;;;3.67;3.37;;;18.80;93.60;;;18.84;47.22;102332.63;4961525;28;98022;-62
2021/05/30 07:33:11;;;;;;;3.90;3.60;;;18.90;93.40;;;18.90;47.08;102328.81;4951769;28;100158;-62
2021/05/30 07:35:37;;;;;;;4.33;3.40;;;19.00;93.30;;;18.95;47.06;102325.00;4948266;28;97342;-62
2021/05/30 07:38:04;;;;;;;5.73;4.50;;;19.10;93.20;;;18.93;46.67;102334.00;4951805;28;97334;-62
2021/05/30 07:40:32;;;;;;;6.37;5.77;;;19.00;92.10;;;18.90;45.24;102334.16;4967901;28;100692;-62
2021/05/30 07:42:59;;;;;;;3.67;3.37;;;19.00;91.90;;;18.89;47.14;102329.75;4949906;28;102667;-62
2021/05/30 07:45:27;;;;;;;3.97;3.67;;;19.00;93.20;;;18.88;47.11;102330.69;4959290;28;97142;-60
2021/05/30 07:47:53;;;;;;;5.03;3.67;;;19.00;93.10;;;18.90;47.19;102334.16;4977840;28;97720;-61
2021/05/30 07:50:20;;;;;;;3.97;3.67;;;19.10;93.00;;;18.93;46.96;102337.53;4971088;28;98801;-62
2021/05/30 07:52:46;;;;;;;3.97;3.57;;;19.10;92.90;;;18.97;46.93;102332.97;4969218;28;100155;-62
2021/05/30 07:55:14;;;;;;;5.57;4.73;;;19.10;92.80;;;19.04;46.25;102334.41;4971027;28;97411;-62
2021/05/30 07:57:40;;;;;;;3.80;3.50;;;19.20;92.10;;;19.04;46.67;102337.06;4948151;28;96993;-62
2021/05/30 08:00:10;;;;;;;3.70;3.40;;;19.20;92.70;;;19.02;46.71;102341.63;4957434;28;100629;-62
2021/05/30 08:02:36;;;;;;;3.90;3.50;;;19.20;92.70;;;18.98;46.77;102327.53;4934488;28;99444;-61
2021/05/30 08:05:04;;;;;;;3.77;3.47;;;19.20;92.70;;;19.05;46.59;102330.78;4986577;28;96885;-62
2021/05/30 08:07:30;;;;;;;3.90;3.50;;;19.20;92.60;;;19.08;46.64;102337.81;4950007;28;97463;-63
2021/05/30 08:09:57;;;;;;;5.30;4.80;;;19.20;92.30;;;19.05;46.04;102330.78;4966319;28;99357;-62
2021/05/30 08:12:23;;;;;;;6.23;4.57;;;19.10;91.70;;;19.06;46.36;102332.53;4954250;28;99617;-62
2021/05/30 08:14:49;;;;;;;3.33;3.13;;;19.10;92.10;;;19.07;46.51;102325.38;4964011;28;97135;-62
2021/05/30 08:17:15;;;;;;;4.90;4.40;;;19.20;92.60;;;19.08;46.24;102317.28;4970801;28;96781;-62
2021/05/30 08:19:42;;;;;;;3.50;3.23;;;19.20;92.30;;;19.08;46.60;102322.63;4935317;28;97317;-62
2021/05/30 08:22:09;;;;;;;3.40;3.10;;;19.20;92.60;;;19.06;46.42;102324.50;4950676;28;97319;-62
2021/05/30 08:24:37;;;;;;;6.03;5.23;;;19.10;92.20;;;19.07;45.63;102320.03;4946900;28;97361;-62
2021/05/30 08:27:04;;;;;;;6.07;5.13;;;19.10;91.30;;;19.09;44.92;102319.00;4969623;28;97012;-62
2021/05/30 08:29:29;;;;;;;3.57;3.10;;;19.20;91.60;;;19.08;46.54;102317.28;4948744;28;97983;-62
2021/05/30 08:31:56;;;;;;;3.83;3.47;;;19.20;92.60;;;19.10;46.54;102315.44;4980159;28;98054;-62
2021/05/30 08:34:22;;;;;;;3.07;2.77;;;19.20;92.50;;;19.12;46.46;102318.03;4954008;28;97367;-62
2021/05/30 08:36:48;;;;;;;4.30;3.90;;;19.20;92.40;;;19.13;46.54;102315.28;4948175;28;102842;-62
2021/05/30 08:39:15;;;;;;;7.57;4.60;;;19.30;92.40;;;19.06;41.40;102313.81;4950198;28;99736;-62
2021/05/30 08:41:41;;;;;;;5.70;4.53;;;19.20;87.50;;;19.09;43.68;102324.34;4961344;28;98756;-63
2021/05/30 08:44:09;;;;;;;4.97;3.77;;;19.10;90.70;;;19.05;43.68;102321.91;4941508;28;97127;-61
2021/05/30 08:46:35;;;;;;;5.27;4.60;;;19.00;90.70;;;19.06;46.17;102320.97;4946564;28;97131;-60
2021/05/30 08:49:02;;;;;;;6.13;4.40;;;19.00;92.00;;;19.08;45.80;102317.28;4966167;28;99251;-62
2021/05/30 08:51:29;;;;;;;3.23;2.93;;;19.10;91.70;;;19.03;46.66;102321.97;4945946;28;96872;-64
2021/05/30 08:53:55;;;;;;;3.40;3.17;;;19.20;92.60;;;19.02;46.85;102317.56;4950445;28;97307;-60
2021/05/30 08:56:21;;;;;;;6.30;4.30;;;19.20;92.50;;;19.04;42.83;102310.34;4963639;28;97978;-61
2021/05/30 08:58:49;;;;;;;3.80;3.50;;;19.20;89.40;;;19.07;46.36;102310.19;4950463;28;98667;-61
2021/05/30 09:01:27;;;;;;;2.90;2.70;;;19.20;92.30;;;19.07;46.68;102310.19;4948835;28;99785;-62
2021/05/30 09:03:53;;;;;;;5.60;3.60;;;19.20;92.30;;;19.10;45.82;102304.72;4951296;28;97417;-62
2021/05/30 09:06:21;;;;;;;5.33;4.00;;;19.20;91.60;;;19.04;40.74;102305.00;4948604;28;97546;-62
2021/05/30 09:08:53;;;;;;;4.87;3.70;;;19.10;86.20;;;19.08;43.10;102298.56;4951704;28;100490;-61
2021/05/30 09:11:44;;;;;;;4.53;4.00;;;19.10;90.40;;;19.06;41.70;102297.75;4950678;28;98468;-62
2021/05/30 09:14:24;;;;;;;5.93;4.40;;;19.00;87.60;;;19.06;45.24;102302.25;4985647;28;96708;-63
2021/05/30 09:17:07;;;;;;;4.17;3.70;;;19.10;90.70;;;19.08;41.80;102303.03;4948641;28;97028;-62
2021/05/30 09:19:49;;;;;;;5.33;4.30;;;19.10;87.10;;;19.07;42.54;102294.16;4954192;28;102818;-62
2021/05/30 09:22:16;;;;;;;5.23;4.73;;;19.10;89.10;;;19.03;43.58;102295.22;4970182;28;99701;-61
2021/05/30 09:25:03;;;;;;;4.60;4.20;;;19.00;88.70;;;19.02;40.95;102290.81;4955569;28;96896;-60
2021/05/30 09:27:29;;;;;;;5.50;4.40;;;19.00;85.70;;;18.95;42.05;102292.03;4947529;28;103108;-64
2021/05/30 09:30:19;;;;;;;4.23;3.83;;;18.90;87.70;;;19.01;43.17;102294.44;4972284;28;100881;-60
2021/05/30 09:33:18;;;;;;;4.33;3.93;;;19.00;89.80;;;19.05;41.28;102293.34;4947640;28;98744;-62
2021/05/30 09:35:50;;;;;;;5.27;4.77;;;19.00;86.60;;;19.01;41.99;102294.44;4976967;28;100481;-62
2021/05/30 09:38:22;;;;;;;4.53;4.13;;;19.00;88.10;;;19.06;41.29;102287.06;4985534;28;97588;-62
2021/05/30 09:40:54;;;;;;;4.73;4.07;;;19.10;86.20;;;19.12;45.60;102291.28;4984359;28;100239;-62
2021/05/30 09:43:33;;;;;;;5.80;4.53;;;19.10;91.40;;;19.09;40.85;102284.25;4947962;28;98697;-62
2021/05/30 09:46:08;;;;;;;6.13;4.90;;;19.20;85.80;;;19.13;42.68;102283.19;4955840;28;97293;-61
2021/05/30 09:48:41;;;;;;;5.30;4.57;;;19.10;87.00;;;19.13;39.85;102283.19;4976702;28;96967;-62
2021/05/30 09:51:37;;;;;;;5.27;4.57;;;19.20;83.80;;;19.17;40.90;102282.09;4972796;28;100306;-62
2021/05/30 09:54:17;;;;;;;4.43;3.80;;;19.20;84.30;;;19.19;44.62;102277.53;4949473;28;103919;-62
2021/05/30 09:56:54;;;;;;;5.93;3.30;;;19.20;90.30;;;19.17;39.37;102279.41;4980075;28;96779;-61
2021/05/30 09:59:23;;;;;;;3.83;3.13;;;19.30;83.10;;;19.17;39.67;102279.41;4952927;28;96854;-62
2021/05/30 10:02:00;;;;;;;3.30;3.00;;;19.20;84.20;;;19.22;45.20;102276.53;4945790;28;99607;-62
2021/05/30 10:04:30;;;;;;;5.37;4.17;;;19.30;91.00;;;19.26;40.15;102281.69;4952635;28;99425;-61
2021/05/30 10:06:57;;;;;;;4.63;3.57;;;19.40;84.90;;;19.26;39.63;102270.97;4954636;28;96837;-62
2021/05/30 10:09:24;;;;;;;3.87;3.47;;;19.30;83.10;;;19.30;44.32;102275.25;4964003;28;98800;-61
2021/05/30 10:11:50;;;;;;;4.23;3.80;;;19.40;90.10;;;19.36;41.26;102270.53;4967986;28;100128;-62
2021/05/30 10:14:17;;;;;;;4.30;3.50;;;19.50;86.40;;;19.41;41.63;102265.84;4952526;28;98110;-61